Terminal Aerodrome Forecast
Issued by NWS

Home | Current Version | Previous Version | Text Only | Print | Product List | Glossary On
Versions: 1 2 3 4 5 6 7 8 9 10 11 12 13
791
FTUS43 KDLH 222342
TAFHYR
TAF
KHYR 222342Z 2300/2324 16008KT P6SM SKC
     FM230400 17010KT P6SM VCSH SCT035 OVC070
     FM230600 17010KT 4SM -SHSN SCT020 BKN030
     FM231400 17010G18KT P6SM VCSH BKN025=

USA.gov is the U.S. government's official web portal to all federal, state and local government web resources and services.